Time;durP1;ratioP1;P1;durP2;ratioP2;P2;SDS_P1;SDS_P2;PMS_P1;PMS_P2;Temp;Humidity;BMP_temperature;BMP_pressure;BME280_temperature;BME280_humidity;BME280_pressure;Samples;Min_cycle;Max_cycle;Signal;HPM_P1;HPM_P2
2021/05/15 00:01:26;;;;;;;1.80;1.70;;;11.40;99.90;;;;;;5015713;28;20232;-73
2021/05/15 00:03:53;;;;;;;1.83;1.73;;;11.40;99.90;;;;;;5013361;28;20241;-73
2021/05/15 00:06:20;;;;;;;1.35;1.30;;;11.40;99.90;;;;;;5017841;28;20210;-73
2021/05/15 00:08:46;;;;;;;1.45;1.38;;;11.40;99.90;;;;;;5013279;28;20207;-73
2021/05/15 00:11:14;;;;;;;1.20;1.20;;;11.40;99.90;;;;;;5012213;28;20204;-73
2021/05/15 00:13:40;;;;;;;1.40;1.30;;;11.40;99.90;;;;;;5016801;28;20223;-74
2021/05/15 00:16:07;;;;;;;1.40;1.40;;;11.50;99.90;;;;;;5013757;28;20720;-73
2021/05/15 00:18:34;;;;;;;1.60;1.50;;;11.50;99.90;;;;;;5016073;28;20204;-74
2021/05/15 00:21:00;;;;;;;1.58;1.48;;;11.40;99.90;;;;;;5015936;28;20216;-73
2021/05/15 00:23:27;;;;;;;1.50;1.40;;;11.40;99.90;;;;;;5014113;28;20201;-73
2021/05/15 00:25:54;;;;;;;1.40;1.27;;;11.40;99.90;;;;;;5019927;28;20196;-74
2021/05/15 00:28:21;;;;;;;1.60;1.50;;;11.40;99.90;;;;;;5015501;28;20208;-73
2021/05/15 00:30:48;;;;;;;1.30;1.30;;;11.40;99.90;;;;;;5010528;28;20203;-73
2021/05/15 00:33:14;;;;;;;1.45;1.40;;;11.40;99.90;;;;;;5013888;28;20200;-73
2021/05/15 00:35:41;;;;;;;1.45;1.35;;;11.40;99.90;;;;;;5016427;28;20192;-72
2021/05/15 00:38:08;;;;;;;1.40;1.40;;;11.40;99.90;;;;;;5014578;28;20209;-73
2021/05/15 00:40:34;;;;;;;1.40;1.30;;;11.40;99.90;;;;;;5011871;28;20236;-74
2021/05/15 00:43:01;;;;;;;1.80;1.70;;;11.40;99.90;;;;;;5013476;28;20200;-73
2021/05/15 00:45:28;;;;;;;1.70;1.60;;;11.40;99.90;;;;;;5011820;28;20217;-73
2021/05/15 00:47:55;;;;;;;1.80;1.70;;;11.40;99.90;;;;;;5012848;28;20193;-73
2021/05/15 00:50:21;;;;;;;1.70;1.60;;;11.30;99.90;;;;;;5010348;28;20200;-74
2021/05/15 00:52:48;;;;;;;2.60;1.52;;;11.30;99.90;;;;;;5013992;28;20193;-73
2021/05/15 00:55:16;;;;;;;1.40;1.40;;;11.30;99.90;;;;;;5011026;28;20216;-73
2021/05/15 00:57:42;;;;;;;1.50;1.50;;;11.30;99.90;;;;;;5007309;28;20203;-74
2021/05/15 01:00:11;;;;;;;1.67;1.60;;;11.30;99.90;;;;;;5007907;28;20254;-73
2021/05/15 01:02:39;;;;;;;1.92;1.75;;;11.30;99.90;;;;;;5010645;28;20200;-70
2021/05/15 01:05:07;;;;;;;1.50;1.50;;;11.20;99.90;;;;;;5009976;28;20228;-73
2021/05/15 01:07:34;;;;;;;1.50;1.40;;;11.20;99.90;;;;;;5013573;28;20674;-73
2021/05/15 01:10:01;;;;;;;1.45;1.35;;;11.20;99.90;;;;;;5009168;28;20199;-73
2021/05/15 01:12:28;;;;;;;1.52;1.50;;;11.20;99.90;;;;;;5014686;28;20601;-73
2021/05/15 01:14:54;;;;;;;1.70;1.65;;;11.20;99.90;;;;;;5008468;28;20235;-73
2021/05/15 01:17:21;;;;;;;1.80;1.70;;;11.20;99.90;;;;;;5015640;28;20763;-73
2021/05/15 01:19:48;;;;;;;1.55;1.45;;;11.20;99.90;;;;;;5011211;28;20279;-74
2021/05/15 01:22:17;;;;;;;1.50;1.50;;;11.10;99.90;;;;;;5009170;28;20204;-73
2021/05/15 01:24:45;;;;;;;1.50;1.38;;;11.10;99.90;;;;;;5009085;28;20224;-73
2021/05/15 01:27:14;;;;;;;1.30;1.30;;;11.10;99.90;;;;;;5011670;28;20574;-74
2021/05/15 01:29:42;;;;;;;1.55;1.50;;;11.10;99.90;;;;;;5015680;28;20197;-73
2021/05/15 01:32:09;;;;;;;1.45;1.45;;;11.00;99.90;;;;;;5010117;28;20196;-73
2021/05/15 01:34:36;;;;;;;1.63;1.52;;;11.00;99.90;;;;;;5009227;28;20224;-73
2021/05/15 01:37:02;;;;;;;1.48;1.38;;;11.00;99.90;;;;;;5014929;28;20204;-73
2021/05/15 01:39:32;;;;;;;1.50;1.50;;;11.00;99.90;;;;;;5014217;28;20200;-74
2021/05/15 01:41:58;;;;;;;1.60;1.50;;;11.00;99.90;;;;;;5010158;28;20230;-74
2021/05/15 01:44:25;;;;;;;1.40;1.40;;;11.00;99.90;;;;;;5013707;28;20224;-74
2021/05/15 01:46:51;;;;;;;1.60;1.50;;;11.00;99.90;;;;;;5009674;28;20625;-73
2021/05/15 01:49:19;;;;;;;1.50;1.50;;;11.00;99.90;;;;;;5011258;28;20197;-73
2021/05/15 01:51:46;;;;;;;1.50;1.40;;;11.10;99.90;;;;;;5013279;28;20199;-73
2021/05/15 01:54:12;;;;;;;1.55;1.55;;;11.10;99.90;;;;;;5013974;28;20231;-73
2021/05/15 01:56:40;;;;;;;1.60;1.60;;;11.10;99.90;;;;;;5012974;28;20207;-73
2021/05/15 01:59:08;;;;;;;1.45;1.40;;;11.10;99.90;;;;;;5014658;28;20204;-73
2021/05/15 02:01:35;;;;;;;1.60;1.50;;;11.00;99.90;;;;;;5010367;28;20219;-73
2021/05/15 02:04:03;;;;;;;1.42;1.42;;;11.00;99.90;;;;;;5010087;28;20685;-73
2021/05/15 02:06:29;;;;;;;1.35;1.35;;;11.00;99.90;;;;;;5019058;28;20650;-73
2021/05/15 02:08:56;;;;;;;1.70;1.60;;;11.10;99.90;;;;;;5010453;28;20712;-73
2021/05/15 02:11:22;;;;;;;1.48;1.48;;;11.10;99.90;;;;;;5012504;28;20204;-71
2021/05/15 02:13:50;;;;;;;1.45;1.40;;;11.00;99.90;;;;;;5012717;28;20216;-72
2021/05/15 02:16:18;;;;;;;1.35;1.35;;;11.10;99.90;;;;;;5009578;28;20204;-73
2021/05/15 02:18:45;;;;;;;1.65;1.63;;;11.10;99.90;;;;;;5007718;28;20196;-73
2021/05/15 02:21:11;;;;;;;1.52;1.42;;;11.00;99.90;;;;;;5008215;28;20745;-73
2021/05/15 02:23:38;;;;;;;1.50;1.50;;;11.10;99.90;;;;;;5014971;28;20219;-74
2021/05/15 02:26:06;;;;;;;1.40;1.40;;;11.10;99.90;;;;;;5012713;28;20849;-73
2021/05/15 02:28:32;;;;;;;1.67;1.58;;;11.10;99.90;;;;;;5011124;28;20574;-73
2021/05/15 02:31:00;;;;;;;1.35;1.35;;;11.10;99.90;;;;;;5010022;28;20197;-73
2021/05/15 02:33:27;;;;;;;1.70;1.60;;;11.10;99.90;;;;;;5008060;28;20582;-73
2021/05/15 02:35:54;;;;;;;1.55;1.50;;;11.10;99.90;;;;;;5010854;28;20216;-73
2021/05/15 02:38:21;;;;;;;1.80;1.70;;;11.10;99.90;;;;;;5013842;28;20196;-73
2021/05/15 02:40:48;;;;;;;1.30;1.30;;;11.10;99.90;;;;;;5007849;28;20278;-73
2021/05/15 02:43:15;;;;;;;1.70;1.60;;;11.10;99.90;;;;;;5009011;28;20231;-73
2021/05/15 02:45:43;;;;;;;1.90;1.80;;;11.10;99.90;;;;;;5010577;28;20204;-73
2021/05/15 02:48:16;;;;;;;1.50;1.50;;;11.10;99.90;;;;;;5008828;28;20257;-73
2021/05/15 02:50:44;;;;;;;1.35;1.35;;;11.10;99.90;;;;;;5007532;28;20576;-73
2021/05/15 02:53:10;;;;;;;1.42;1.42;;;11.10;99.90;;;;;;5009512;28;20196;-73
2021/05/15 02:55:37;;;;;;;1.80;1.70;;;11.10;99.90;;;;;;5009424;28;20227;-73
2021/05/15 02:58:04;;;;;;;1.70;1.63;;;11.00;99.90;;;;;;5010834;28;20222;-73
2021/05/15 03:00:30;;;;;;;1.90;1.80;;;11.00;99.90;;;;;;5009103;28;20706;-73
2021/05/15 03:02:57;;;;;;;1.33;1.30;;;11.00;99.90;;;;;;5009301;28;20200;-74
2021/05/15 03:05:26;;;;;;;1.80;1.70;;;11.00;99.90;;;;;;5029809;23;20223;-79
2021/05/15 03:07:54;;;;;;;1.60;1.52;;;11.10;99.90;;;;;;5005236;28;20196;-73
2021/05/15 03:10:23;;;;;;;1.75;1.73;;;11.10;99.90;;;;;;5008839;28;20200;-73
2021/05/15 03:12:50;;;;;;;1.60;1.60;;;11.10;99.90;;;;;;5008951;28;20219;-75
2021/05/15 03:15:17;;;;;;;1.70;1.60;;;11.10;99.90;;;;;;5009592;28;20246;-72
2021/05/15 03:17:43;;;;;;;1.55;1.55;;;11.10;99.90;;;;;;5008977;28;20196;-77
2021/05/15 03:20:13;;;;;;;1.85;1.75;;;11.10;99.90;;;;;;5005183;28;20246;-78
2021/05/15 03:22:41;;;;;;;1.70;1.60;;;11.00;99.90;;;;;;5004297;28;20258;-75
2021/05/15 03:25:09;;;;;;;1.50;1.50;;;11.00;99.90;;;;;;5008110;28;20760;-74
2021/05/15 03:27:36;;;;;;;2.08;1.98;;;11.00;99.90;;;;;;5012415;28;20212;-74
2021/05/15 03:30:03;;;;;;;1.88;1.77;;;11.00;99.90;;;;;;5004933;28;20204;-77
2021/05/15 03:32:30;;;;;;;1.40;1.40;;;11.00;99.90;;;;;;5006716;28;20204;-70
2021/05/15 03:34:56;;;;;;;1.80;1.70;;;11.00;99.90;;;;;;5007589;28;20583;-76
2021/05/15 03:37:23;;;;;;;1.35;1.35;;;11.00;99.90;;;;;;5006933;28;20200;-77
2021/05/15 03:39:50;;;;;;;1.77;1.70;;;11.00;99.90;;;;;;5009753;28;20254;-75
2021/05/15 03:42:17;;;;;;;1.67;1.60;;;11.00;99.90;;;;;;5005735;28;20218;-74
2021/05/15 03:44:43;;;;;;;1.67;1.65;;;11.00;99.90;;;;;;5005242;28;20216;-74
2021/05/15 03:47:10;;;;;;;1.60;1.45;;;10.90;99.90;;;;;;5009018;28;20716;-75
2021/05/15 03:49:37;;;;;;;1.70;1.60;;;10.90;99.90;;;;;;5005687;28;20212;-77
2021/05/15 03:52:04;;;;;;;1.63;1.52;;;10.90;99.90;;;;;;5006223;28;20197;-75
2021/05/15 03:54:30;;;;;;;1.58;1.58;;;10.90;99.90;;;;;;5009320;28;20231;-76
2021/05/15 03:56:58;;;;;;;1.50;1.50;;;10.90;99.90;;;;;;5007176;28;20196;-76
2021/05/15 03:59:24;;;;;;;1.40;1.40;;;10.90;99.90;;;;;;5006975;28;20207;-74
2021/05/15 04:01:51;;;;;;;1.42;1.42;;;10.90;99.90;;;;;;5003283;28;22241;-77
2021/05/15 04:04:18;;;;;;;1.55;1.55;;;10.90;99.90;;;;;;5004909;28;20236;-76
2021/05/15 04:06:44;;;;;;;1.70;1.60;;;11.00;99.90;;;;;;5005531;28;20204;-74
2021/05/15 04:09:11;;;;;;;1.63;1.52;;;10.90;99.90;;;;;;5005653;28;20207;-77
2021/05/15 04:11:39;;;;;;;1.50;1.50;;;11.00;99.90;;;;;;5005520;28;20682;-76
2021/05/15 04:14:20;;;;;;;1.70;1.60;;;11.00;99.90;;;;;;5011499;28;20301;-74
2021/05/15 04:16:59;;;;;;;1.90;1.80;;;11.00;99.90;;;;;;5004396;28;20349;-76
2021/05/15 04:19:26;;;;;;;1.65;1.55;;;11.00;99.90;;;;;;5010383;28;20236;-77
2021/05/15 04:21:53;;;;;;;1.55;1.48;;;11.00;99.90;;;;;;5008204;28;20217;-73
2021/05/15 04:24:23;;;;;;;1.55;1.48;;;11.00;99.90;;;;;;5012548;28;20246;-73
2021/05/15 04:26:50;;;;;;;1.63;1.63;;;11.00;99.90;;;;;;5005647;28;20212;-75
2021/05/15 04:29:17;;;;;;;1.58;1.58;;;11.00;99.90;;;;;;5003250;28;20196;-76
2021/05/15 04:31:44;;;;;;;1.65;1.55;;;11.00;99.90;;;;;;5008818;28;20193;-76
2021/05/15 04:34:11;;;;;;;1.45;1.45;;;11.00;99.90;;;;;;5008895;28;20231;-73
2021/05/15 04:36:37;;;;;;;2.00;1.90;;;11.00;99.90;;;;;;5010452;28;20196;-76
2021/05/15 04:39:04;;;;;;;1.60;1.52;;;11.10;99.90;;;;;;5010802;28;20625;-76
2021/05/15 04:41:31;;;;;;;1.58;1.58;;;11.10;99.90;;;;;;5011570;28;20221;-76
2021/05/15 04:43:57;;;;;;;1.88;1.77;;;11.10;99.90;;;;;;5015628;28;20220;-76
2021/05/15 04:46:25;;;;;;;2.00;1.90;;;11.10;99.90;;;;;;5014982;28;20206;-80
2021/05/15 04:48:52;;;;;;;1.90;1.80;;;11.10;99.90;;;;;;5010210;28;20215;-77
2021/05/15 04:51:18;;;;;;;1.88;1.77;;;11.20;99.90;;;;;;5011174;28;20651;-76
2021/05/15 04:53:45;;;;;;;2.35;2.25;;;11.10;99.90;;;;;;5009929;28;20204;-75
2021/05/15 04:56:11;;;;;;;2.38;2.28;;;11.10;99.90;;;;;;5012629;28;20204;-77
2021/05/15 04:58:38;;;;;;;2.55;2.42;;;11.20;99.90;;;;;;5013187;28;20204;-73
2021/05/15 05:01:05;;;;;;;2.70;2.60;;;11.10;99.90;;;;;;5011190;28;20212;-76
2021/05/15 05:03:32;;;;;;;2.63;2.53;;;11.10;99.90;;;;;;5011632;28;20211;-75
2021/05/15 05:05:59;;;;;;;2.60;2.50;;;11.10;99.90;;;;;;5008860;28;20228;-75
2021/05/15 05:08:25;;;;;;;2.45;2.35;;;11.10;99.90;;;;;;5012622;28;20662;-74
2021/05/15 05:10:52;;;;;;;2.40;2.30;;;11.20;99.90;;;;;;5012584;28;20200;-73
2021/05/15 05:13:19;;;;;;;2.58;2.47;;;11.20;99.90;;;;;;5019854;28;20554;-72
2021/05/15 05:15:46;;;;;;;2.78;2.65;;;11.20;99.90;;;;;;5013599;28;20216;-73
2021/05/15 05:18:12;;;;;;;3.83;2.53;;;11.20;99.90;;;;;;5012590;28;20349;-74
2021/05/15 05:20:40;;;;;;;2.40;2.30;;;11.20;99.90;;;;;;5010596;28;20231;-76
2021/05/15 05:23:07;;;;;;;3.03;2.83;;;11.30;99.90;;;;;;5013929;28;20204;-73
2021/05/15 05:25:34;;;;;;;3.67;2.65;;;11.30;99.90;;;;;;5010449;28;20298;-74
2021/05/15 05:28:01;;;;;;;2.70;2.50;;;11.30;99.90;;;;;;5013217;28;20199;-75
2021/05/15 05:30:28;;;;;;;2.50;2.30;;;11.30;99.90;;;;;;5009985;28;20272;-73
2021/05/15 05:32:55;;;;;;;2.65;2.50;;;11.30;99.90;;;;;;5011733;28;20689;-74
2021/05/15 05:35:22;;;;;;;4.05;3.03;;;11.30;99.90;;;;;;5011540;28;20223;-72
2021/05/15 05:37:49;;;;;;;3.10;2.90;;;11.30;99.90;;;;;;5010138;28;20593;-74
2021/05/15 05:40:18;;;;;;;3.30;3.10;;;11.30;99.90;;;;;;5011961;28;20242;-74
2021/05/15 05:42:45;;;;;;;3.58;3.33;;;11.40;99.90;;;;;;5011478;28;20200;-76
2021/05/15 05:45:14;;;;;;;3.45;3.15;;;11.40;99.90;;;;;;5011835;28;20228;-72
2021/05/15 05:47:41;;;;;;;3.58;3.38;;;11.30;99.90;;;;;;5011541;28;20204;-73
2021/05/15 05:50:08;;;;;;;3.97;3.67;;;11.40;99.90;;;;;;5012605;28;20197;-76
2021/05/15 05:52:35;;;;;;;3.42;3.22;;;11.50;99.90;;;;;;5011212;28;20201;-76
2021/05/15 05:55:05;;;;;;;3.78;3.47;;;11.50;99.90;;;;;;5011773;28;20212;-72
2021/05/15 05:57:31;;;;;;;3.53;3.25;;;11.60;99.90;;;;;;5012979;28;20209;-76
2021/05/15 05:59:58;;;;;;;2.85;2.70;;;11.60;99.90;;;;;;5010688;28;20216;-76
2021/05/15 06:02:24;;;;;;;3.78;3.55;;;11.60;99.90;;;;;;5009479;28;20830;-78
2021/05/15 06:04:51;;;;;;;4.10;3.80;;;11.70;99.90;;;;;;5018016;28;20235;-73
2021/05/15 06:07:18;;;;;;;3.65;3.45;;;11.70;99.90;;;;;;5013066;28;20556;-73
2021/05/15 06:09:44;;;;;;;4.00;3.70;;;11.80;99.90;;;;;;5011722;28;20327;-73
2021/05/15 06:12:13;;;;;;;6.60;4.72;;;11.80;99.90;;;;;;5008698;28;20717;-76
2021/05/15 06:14:40;;;;;;;4.63;4.22;;;11.80;99.90;;;;;;5014760;28;20618;-75
2021/05/15 06:17:07;;;;;;;4.32;4.03;;;11.80;99.90;;;;;;5007228;28;20200;-73
2021/05/15 06:19:34;;;;;;;3.63;3.42;;;11.80;99.90;;;;;;5011378;28;20250;-75
2021/05/15 06:22:00;;;;;;;4.70;4.40;;;11.80;99.90;;;;;;5007617;28;20282;-75
2021/05/15 06:24:27;;;;;;;5.32;4.97;;;11.80;99.90;;;;;;5004487;28;20753;-77
2021/05/15 06:26:54;;;;;;;4.75;4.35;;;11.80;99.90;;;;;;5005926;28;20207;-73
2021/05/15 06:29:21;;;;;;;5.30;4.90;;;11.70;99.90;;;;;;5010585;28;20200;-77
2021/05/15 06:31:48;;;;;;;5.22;4.82;;;11.70;99.90;;;;;;5010807;28;20188;-72
2021/05/15 06:34:14;;;;;;;5.13;4.82;;;11.70;99.90;;;;;;5018478;28;20228;-74
2021/05/15 06:36:41;;;;;;;4.47;4.20;;;11.70;99.90;;;;;;5012758;28;20200;-73
2021/05/15 06:39:08;;;;;;;4.72;4.43;;;11.80;99.90;;;;;;5011953;28;20661;-72
2021/05/15 06:41:34;;;;;;;4.90;4.50;;;11.80;99.90;;;;;;5011157;28;20213;-77
2021/05/15 06:44:01;;;;;;;4.70;4.40;;;11.90;99.90;;;;;;5012900;28;20215;-74
2021/05/15 06:46:28;;;;;;;5.38;4.93;;;12.00;99.90;;;;;;5005094;28;20251;-73
2021/05/15 06:48:55;;;;;;;5.35;5.03;;;12.20;99.90;;;;;;5009937;28;20701;-74
2021/05/15 06:51:22;;;;;;;4.97;4.68;;;12.30;99.90;;;;;;5008224;28;20258;-72
2021/05/15 06:53:48;;;;;;;5.45;5.10;;;12.40;99.90;;;;;;5009877;28;20195;-74
2021/05/15 06:56:15;;;;;;;5.43;4.57;;;12.40;99.90;;;;;;5012893;28;20203;-73
2021/05/15 06:58:43;;;;;;;4.60;4.30;;;12.50;99.90;;;;;;5020626;28;20204;-73
2021/05/15 07:01:10;;;;;;;5.07;4.60;;;12.70;99.90;;;;;;5006658;28;20219;-73
2021/05/15 07:03:38;;;;;;;5.00;4.60;;;12.70;99.90;;;;;;5011170;28;20218;-72
2021/05/15 07:06:05;;;;;;;4.68;4.30;;;12.70;99.90;;;;;;5010960;28;20585;-72
2021/05/15 07:08:32;;;;;;;4.50;4.20;;;12.80;99.90;;;;;;5010816;28;20550;-72
2021/05/15 07:10:59;;;;;;;4.85;4.18;;;12.80;99.90;;;;;;5006551;28;20561;-73
2021/05/15 07:13:26;;;;;;;5.20;4.70;;;12.80;99.90;;;;;;5007637;28;20206;-71
2021/05/15 07:15:52;;;;;;;5.03;4.72;;;12.90;99.90;;;;;;5004478;28;20343;-72
2021/05/15 07:18:20;;;;;;;6.20;4.70;;;12.90;99.90;;;;;;5004015;28;20809;-72
2021/05/15 07:20:48;;;;;;;5.22;4.80;;;13.10;99.90;;;;;;4997294;28;20223;-71
2021/05/15 07:23:14;;;;;;;4.60;4.20;;;13.30;99.90;;;;;;5001954;28;20200;-71
2021/05/15 07:25:41;;;;;;;4.25;3.95;;;13.80;99.90;;;;;;5002755;28;20225;-73
2021/05/15 07:28:08;;;;;;;4.50;4.13;;;14.20;99.90;;;;;;5000864;28;20196;-76
2021/05/15 07:30:34;;;;;;;4.30;3.80;;;14.20;99.90;;;;;;4993906;28;20196;-73
2021/05/15 07:33:01;;;;;;;3.70;3.50;;;14.00;99.90;;;;;;5002730;28;20622;-75
2021/05/15 07:35:28;;;;;;;4.10;3.80;;;14.00;99.90;;;;;;5004107;28;20212;-76
2021/05/15 07:37:56;;;;;;;3.30;3.00;;;13.80;99.90;;;;;;5003123;28;20204;-71
2021/05/15 07:40:23;;;;;;;3.20;3.00;;;13.80;99.90;;;;;;5006575;28;20226;-74
2021/05/15 07:42:50;;;;;;;2.63;2.42;;;13.90;99.90;;;;;;5001432;28;20255;-74
2021/05/15 07:45:17;;;;;;;2.50;2.40;;;14.10;99.90;;;;;;5004485;28;20216;-74
2021/05/15 07:47:44;;;;;;;2.45;2.35;;;14.60;99.90;;;;;;4999852;28;20208;-73
2021/05/15 07:50:11;;;;;;;2.10;2.00;;;15.00;99.90;;;;;;5005688;28;20685;-71
2021/05/15 07:52:38;;;;;;;3.15;2.38;;;15.30;99.90;;;;;;4999476;28;20200;-71
2021/05/15 07:55:07;;;;;;;2.40;2.20;;;15.40;99.90;;;;;;5002317;28;20232;-72
2021/05/15 07:57:34;;;;;;;2.20;2.10;;;15.30;99.90;;;;;;5001919;28;20196;-72
2021/05/15 08:00:01;;;;;;;2.25;2.00;;;15.40;99.90;;;;;;5003216;28;20224;-73
2021/05/15 08:02:28;;;;;;;2.88;2.20;;;15.60;99.90;;;;;;4995947;28;20216;-74
2021/05/15 08:04:56;;;;;;;1.80;1.70;;;15.80;99.90;;;;;;4995838;28;20313;-73
2021/05/15 08:07:22;;;;;;;2.47;2.00;;;16.00;99.90;;;;;;5003716;28;20209;-73
2021/05/15 08:09:49;;;;;;;2.10;2.00;;;16.40;99.90;;;;;;5004497;28;20222;-74
2021/05/15 08:12:17;;;;;;;1.85;1.75;;;16.60;99.90;;;;;;5006925;28;20192;-71
2021/05/15 08:14:44;;;;;;;2.10;1.58;;;16.90;99.90;;;;;;5002316;28;20697;-73
2021/05/15 08:17:10;;;;;;;2.17;1.90;;;17.00;99.90;;;;;;5010420;28;20230;-74
2021/05/15 08:19:37;;;;;;;1.90;1.80;;;17.00;99.90;;;;;;5008809;28;20298;-72
2021/05/15 08:22:03;;;;;;;2.47;1.83;;;17.00;99.90;;;;;;5010308;28;20592;-74
2021/05/15 08:24:30;;;;;;;1.80;1.70;;;17.30;99.90;;;;;;5004772;28;20236;-72
2021/05/15 08:26:57;;;;;;;1.85;1.75;;;17.50;99.90;;;;;;5009465;28;20192;-71
2021/05/15 08:29:27;;;;;;;1.98;1.70;;;17.80;99.90;;;;;;5010030;28;20289;-72
2021/05/15 08:31:54;;;;;;;1.80;1.70;;;17.70;99.90;;;;;;5009120;28;20291;-74
2021/05/15 08:34:21;;;;;;;1.73;1.63;;;17.40;99.90;;;;;;5009188;28;20278;-72
2021/05/15 08:36:48;;;;;;;1.77;1.67;;;17.20;99.90;;;;;;5009254;28;20200;-74
2021/05/15 08:39:15;;;;;;;1.75;1.65;;;17.20;99.90;;;;;;5005931;28;20215;-73
2021/05/15 08:41:42;;;;;;;2.95;1.60;;;17.40;99.90;;;;;;5006349;28;20219;-72
2021/05/15 08:44:13;;;;;;;1.70;1.60;;;17.70;99.90;;;;;;5007205;28;20216;-73
2021/05/15 08:46:44;;;;;;;1.90;1.80;;;17.50;99.90;;;;;;5008490;28;20215;-72
2021/05/15 08:49:14;;;;;;;1.90;1.70;;;17.10;99.90;;;;;;5010466;28;20204;-72
2021/05/15 08:51:42;;;;;;;2.78;2.00;;;17.20;99.90;;;;;;5006384;28;20596;-71
2021/05/15 08:54:09;;;;;;;2.05;1.75;;;17.40;99.90;;;;;;5010705;28;20215;-72
2021/05/15 08:56:36;;;;;;;1.65;1.50;;;17.80;99.90;;;;;;5007105;28;20606;-72
2021/05/15 08:59:03;;;;;;;1.85;1.70;;;17.90;99.90;;;;;;5000236;28;20196;-71
2021/05/15 09:01:30;;;;;;;1.85;1.65;;;18.00;99.90;;;;;;5005575;28;20220;-71
2021/05/15 09:03:58;;;;;;;1.45;1.35;;;18.10;99.90;;;;;;5010058;28;20196;-71
2021/05/15 09:06:24;;;;;;;1.70;1.60;;;18.10;99.90;;;;;;5051198;23;20237;-73
2021/05/15 09:08:51;;;;;;;1.33;1.23;;;18.00;99.90;;;;;;5032673;28;20748;-74
2021/05/15 09:11:18;;;;;;;1.60;1.50;;;17.90;99.90;;;;;;5035026;28;20219;-73
2021/05/15 09:13:52;;;;;;;1.30;1.30;;;17.60;99.90;;;;;;5035063;28;20575;-73
2021/05/15 09:16:18;;;;;;;1.25;1.17;;;17.60;99.90;;;;;;5035816;28;20231;-73
2021/05/15 09:18:45;;;;;;;1.10;1.10;;;18.00;99.90;;;;;;5035860;28;20772;-74
2021/05/15 09:21:15;;;;;;;1.50;1.40;;;18.30;99.90;;;;;;5034391;28;20716;-75
2021/05/15 09:23:45;;;;;;;1.40;1.30;;;18.70;99.90;;;;;;5033603;28;20195;-72
2021/05/15 09:26:14;;;;;;;1.45;1.35;;;18.20;99.90;;;;;;5039188;28;20828;-74
2021/05/15 09:28:44;;;;;;;1.08;1.08;;;18.10;99.90;;;;;;5035340;28;20196;-74
2021/05/15 09:31:22;;;;;;;1.33;1.23;;;18.00;99.90;;;;;;5036031;28;20787;-73
2021/05/15 09:33:51;;;;;;;1.63;1.30;;;18.30;99.90;;;;;;5035755;28;20215;-73
2021/05/15 09:36:24;;;;;;;1.10;1.10;;;18.70;99.90;;;;;;5034290;28;20250;-72
2021/05/15 09:39:07;;;;;;;1.10;1.10;;;19.00;99.90;;;;;;5037031;28;20195;-73
2021/05/15 09:41:37;;;;;;;1.23;1.23;;;19.00;99.90;;;;;;5035352;28;20214;-74
2021/05/15 09:44:05;;;;;;;1.23;1.20;;;19.00;99.90;;;;;;5035443;28;20621;-74
2021/05/15 09:46:36;;;;;;;1.25;1.15;;;18.90;99.90;;;;;;5033936;28;20222;-73
2021/05/15 09:49:03;;;;;;;1.13;1.13;;;19.10;99.90;;;;;;5036917;28;20206;-74
2021/05/15 09:51:31;;;;;;;1.63;1.40;;;19.10;99.90;;;;;;5037292;28;20225;-73
2021/05/15 09:54:12;;;;;;;1.45;1.20;;;18.90;99.90;;;;;;5037253;28;20238;-75
2021/05/15 09:56:39;;;;;;;2.08;1.17;;;18.90;99.90;;;;;;5034696;28;20215;-75
2021/05/15 09:59:06;;;;;;;0.80;0.80;;;18.60;99.90;;;;;;5036550;28;20210;-73
2021/05/15 10:04:02;;;;;;;1.10;1.10;;;18.90;99.90;;;;;;5089476;27;20574;-74
2021/05/15 10:06:29;;;;;;;1.10;1.10;;;18.70;99.90;;;;;;5078489;27;20267;-74
2021/05/15 10:08:56;;;;;;;3.92;2.13;;;18.70;99.90;;;;;;5070570;28;20484;-74
2021/05/15 10:11:25;;;;;;;3.78;1.77;;;18.50;99.90;;;;;;5073248;28;20213;-75
2021/05/15 10:13:52;;;;;;;1.30;1.20;;;18.60;99.90;;;;;;5071498;28;20190;-75
2021/05/15 10:16:19;;;;;;;2.10;1.00;;;18.60;99.90;;;;;;5073001;28;20799;-74
2021/05/15 10:18:45;;;;;;;1.20;1.10;;;18.70;99.90;;;;;;5071575;28;20194;-74
2021/05/15 10:21:13;;;;;;;1.35;1.25;;;18.70;99.90;;;;;;5074831;28;20217;-74
2021/05/15 10:23:41;;;;;;;1.30;1.20;;;18.90;99.90;;;;;;5072453;28;20809;-74
2021/05/15 10:26:10;;;;;;;1.25;1.15;;;19.30;99.90;;;;;;5074237;28;20264;-74
2021/05/15 10:28:38;;;;;;;1.50;1.45;;;19.20;99.90;;;;;;5073292;28;21928;-75
2021/05/15 10:31:10;;;;;;;1.17;1.17;;;19.30;99.90;;;;;;5075833;27;20252;-74
2021/05/15 10:33:38;;;;;;;1.00;1.00;;;19.10;99.90;;;;;;5075290;28;20225;-74
2021/05/15 10:36:07;;;;;;;1.13;1.10;;;19.20;99.90;;;;;;5076013;28;20661;-74
2021/05/15 10:38:37;;;;;;;1.27;1.25;;;19.00;99.90;;;;;;5076374;28;20220;-74
2021/05/15 10:41:15;;;;;;;1.35;1.25;;;19.00;99.90;;;;;;5071736;28;20721;-74
2021/05/15 10:43:43;;;;;;;1.30;1.20;;;19.20;99.90;;;;;;5078250;28;20226;-73
2021/05/15 10:46:19;;;;;;;1.02;1.02;;;19.30;99.90;;;;;;5073363;28;20248;-74
2021/05/15 10:49:06;;;;;;;1.10;1.10;;;19.30;99.90;;;;;;5076692;28;20338;-75
2021/05/15 10:51:41;;;;;;;0.90;0.90;;;19.30;99.90;;;;;;5071332;27;20225;-74
2021/05/15 10:54:11;;;;;;;1.08;1.05;;;19.40;99.90;;;;;;5076387;28;20997;-74
2021/05/15 10:56:38;;;;;;;1.10;1.10;;;19.60;99.90;;;;;;5075602;28;20237;-73
2021/05/15 10:59:07;;;;;;;1.00;1.00;;;19.70;99.90;;;;;;5073702;28;20209;-74
2021/05/15 11:01:49;;;;;;;1.13;1.10;;;19.60;99.90;;;;;;5072143;28;20210;-75
2021/05/15 11:04:31;;;;;;;0.82;0.82;;;19.40;99.90;;;;;;5078719;28;20255;-75
2021/05/15 11:07:08;;;;;;;0.93;0.93;;;19.20;99.90;;;;;;5074721;28;20244;-72
2021/05/15 11:09:37;;;;;;;0.93;0.93;;;19.20;99.90;;;;;;5077890;28;20683;-73
2021/05/15 11:12:13;;;;;;;1.00;1.00;;;18.90;99.90;;;;;;5054473;28;20711;-72
2021/05/15 11:14:41;;;;;;;1.02;1.02;;;18.70;99.90;;;;;;5045974;28;20203;-73
2021/05/15 11:17:22;;;;;;;1.00;1.00;;;18.70;99.90;;;;;;5038605;28;20227;-73
2021/05/15 11:19:51;;;;;;;1.00;1.00;;;18.80;99.90;;;;;;5037825;28;20235;-75
2021/05/15 11:22:19;;;;;;;0.90;0.90;;;19.00;99.90;;;;;;5041739;28;20222;-74
2021/05/15 11:24:54;;;;;;;0.90;0.90;;;19.10;99.90;;;;;;5038847;28;20202;-74
2021/05/15 11:27:23;;;;;;;0.90;0.90;;;18.90;99.90;;;;;;5041174;28;20548;-74
2021/05/15 11:30:16;;;;;;;0.80;0.80;;;18.60;99.90;;;;;;5037733;28;20195;-74
2021/05/15 11:33:01;;;;;;;0.93;0.90;;;18.30;99.90;;;;;;5043919;28;20191;-75
2021/05/15 11:35:29;;;;;;;0.73;0.73;;;18.30;99.90;;;;;;5042779;28;20716;-75
2021/05/15 11:38:06;;;;;;;0.90;0.90;;;18.30;99.90;;;;;;5039759;28;20202;-75
2021/05/15 11:40:35;;;;;;;1.10;0.98;;;18.30;99.90;;;;;;5032397;28;20222;-75
2021/05/15 11:43:02;;;;;;;1.02;0.98;;;18.20;99.90;;;;;;5038219;28;20227;-72
2021/05/15 11:45:31;;;;;;;1.30;1.20;;;18.20;99.90;;;;;;5036480;28;20235;-73
2021/05/15 11:48:20;;;;;;;1.10;1.10;;;18.20;99.90;;;;;;5042150;28;20210;-74
2021/05/15 11:50:58;;;;;;;0.90;0.90;;;18.40;99.90;;;;;;5040977;28;20233;-74
2021/05/15 11:53:25;;;;;;;1.20;1.10;;;18.20;99.90;;;;;;5060650;28;20194;-72
2021/05/15 11:55:53;;;;;;;0.80;0.80;;;18.20;99.90;;;;;;5059045;28;20245;-74
2021/05/15 11:58:20;;;;;;;1.80;1.10;;;18.20;99.90;;;;;;5061723;28;20194;-72
2021/05/15 12:00:47;;;;;;;0.73;0.73;;;18.10;99.90;;;;;;5057098;28;20237;-75
2021/05/15 12:03:20;;;;;;;1.05;0.90;;;18.10;99.90;;;;;;5059901;28;20229;-74
2021/05/15 12:05:47;;;;;;;1.20;1.13;;;18.10;99.90;;;;;;5058903;28;20231;-75
2021/05/15 12:08:14;;;;;;;1.17;1.13;;;18.00;99.90;;;;;;5057312;28;20210;-74
2021/05/15 12:10:41;;;;;;;1.88;1.77;;;18.00;99.90;;;;;;5056084;28;20221;-75
2021/05/15 12:13:09;;;;;;;1.40;1.20;;;18.10;99.90;;;;;;5057761;28;20183;-74
2021/05/15 12:15:38;;;;;;;1.45;1.35;;;18.10;99.90;;;;;;5058371;28;20323;-74
2021/05/15 12:18:06;;;;;;;2.00;1.60;;;18.20;99.90;;;;;;5053824;28;22046;-75
2021/05/15 12:20:39;;;;;;;1.50;1.30;;;18.30;99.90;;;;;;5053958;28;20275;-74
2021/05/15 12:23:16;;;;;;;1.70;1.58;;;18.40;99.90;;;;;;5055975;28;20778;-76
2021/05/15 12:25:45;;;;;;;0.90;0.90;;;18.20;99.90;;;;;;5055688;28;20230;-74
2021/05/15 12:28:20;;;;;;;1.52;1.08;;;18.10;99.90;;;;;;5060525;28;20220;-75
2021/05/15 12:30:47;;;;;;;0.95;0.90;;;18.10;99.90;;;;;;5060855;28;20221;-74
2021/05/15 12:33:18;;;;;;;1.13;1.13;;;18.20;99.90;;;;;;5059478;28;20209;-75
2021/05/15 12:35:56;;;;;;;1.30;1.20;;;18.00;99.90;;;;;;5062619;28;20249;-75
2021/05/15 12:38:23;;;;;;;1.25;1.02;;;18.00;99.90;;;;;;5053123;28;20201;-74
2021/05/15 12:40:49;;;;;;;1.42;0.98;;;18.10;99.90;;;;;;5058127;28;20253;-74
2021/05/15 12:43:16;;;;;;;1.40;1.00;;;18.00;99.90;;;;;;5056104;28;20217;-74
2021/05/15 12:45:45;;;;;;;1.20;1.10;;;18.00;99.90;;;;;;5057681;28;20305;-74
2021/05/15 12:48:21;;;;;;;1.10;1.10;;;17.90;99.90;;;;;;5058346;28;20186;-75
2021/05/15 12:50:49;;;;;;;1.13;1.02;;;17.90;99.90;;;;;;5048873;28;20235;-74
2021/05/15 12:53:16;;;;;;;1.10;1.00;;;17.90;99.90;;;;;;5054754;28;20198;-73
2021/05/15 12:55:49;;;;;;;3.00;1.40;;;18.00;99.90;;;;;;5056918;28;20669;-75